Station: Gladstone  

  Atmospheric Gas Attenuation - ITU Rec 676-11   ----------------- dB/100km -----------------
Date Time Temp RH % AH g/m3 Dew Point Wind Direction Speed kph Gust kph Barometer mB Rainfall Since 9am 24GHz 47GHz 76GHz 122GHz 134GHz 241GHz
08/05 12:30 22.9 16 3.27 -4.2 13 19 1018.5 0 8.1 16.6 18.6 47.9 31.4 104.2
08/05 12:20 22.8 16 3.25 -4.3 17 19 1018.6 0 8.0 16.6 18.6 47.8 31.3 103.7
08/05 12:10 22.9 17 3.47 -3.4 7 11 1018.8 0 8.5 16.9 19.2 49.4 33.4 111.0
08/05 12:00 22.7 18 3.64 -2.8 13 24 1018.9 0 8.9 17.1 19.8 50.9 35.1 117.1
08/05 11:50 23.1 18 3.72 -2.5 7 13 1018.9 0 9.0 17.1 19.9 51.3 35.7 119.3
08/05 11:40 22.3 19 3.75 -2.4 9 15 1019 0 9.1 17.3 20.2 52.0 36.3 121.4
08/05 11:30 21.1 19 3.5 -3.4 13 26 1019.3 0 8.6 17.2 19.7 50.8 34.4 114.5
08/05 11:20 20.9 20 3.64 -2.9 17 20 1019.5 0 8.9 17.4 20.2 52.0 35.9 119.6
08/05 11:10 20.6 19 3.4 -3.8 17 24 1019.7 0 8.4 17.2 19.6 50.3 33.6 111.7
08/05 11:00 20.3 20 3.52 -3.4 19 30 1019.7 0 8.7 17.4 20.0 51.4 34.9 116.3
08/05 10:50 20 20 3.46 -3.6 20 30 1019.8 0 8.5 17.4 19.9 51.1 34.5 114.6
08/05 10:40 20 21 3.63 -3 15 20 1020.1 0 8.9 17.6 20.4 52.5 36.2 120.6
08/05 10:30 19.7 21 3.57 -3.2 15 28 1020.2 0 8.8 17.6 20.3 52.2 35.7 118.9
08/05 10:20 19.5 23 3.86 -2.2 11 20 1020.3 0 9.4 18.0 21.2 54.8 38.7 129.6
08/05 10:10 19.2 23 3.79 -2.4 19 28 1020.4 0 9.3 18.0 21.1 54.4 38.2 127.5
08/05 10:00 18.7 24 3.84 -2.3 19 33 1020.4 0 9.4 18.1 21.4 55.1 38.9 130.1
08/05 09:50 18.1 26 4.02 -1.7 17 26 1020.5 0 9.8 18.5 22.1 57.0 41.1 137.7
08/05 09:40 17.6 26 3.9 -2.1 28 35 1020.3 0 9.5 18.4 21.8 56.4 40.1 134.0
08/05 09:30 17.8 27 4.1 -1.4 17 30 1020.4 0 9.9 18.6 22.4 57.9 42.1 141.1
08/05 09:20 17.5 29 4.32 -0.7 15 20 1020.4 0 10.4 19.0 23.2 60.0 44.6 149.9
08/05 09:10 17.2 31 4.54 -0.1 15 24 1020.5 0 10.9 19.3 24.0 62.2 47.1 158.8
08/05 09:00 16.5 30 4.21 -1.1 20 35 1020.5 0 10.2 19.0 23.1 59.8 43.9 147.5
08/05 08:50 16.4 32 4.47 -0.3 19 24 1020.6 0 10.8 19.4 24.0 62.2 46.8 157.6
08/05 08:40 16.2 33 4.55 -0.1 20 30 1020.5 0 10.9 19.6 24.3 63.0 47.8 161.1
08/05 08:30 16.1 34 4.66 0.3 17 32 1020.6 0 11.2 19.7 24.7 64.1 49.1 165.5
08/05 08:20 15.8 35 4.71 0.4 22 32 1020.6 0 11.3 19.9 25.0 64.8 49.8 168.1
08/05 08:10 15.7 38 5.08 1.4 13 17 1020.4 0 12.1 20.4 26.3 68.2 54.0 182.8
08/05 08:00 15.5 37 4.89 0.9 19 30 1020.2 0 11.7 20.2 25.7 66.6 52.0 175.7
08/05 07:50 15.5 38 5.02 1.3 24 32 1020.2 0 11.9 20.3 26.1 67.8 53.4 180.9
08/05 07:40 15.4 40 5.26 1.9 7 9 1020.2 0 12.4 20.7 27.0 70.1 56.2 190.7
08/05 07:30 15.4 41 5.39 2.2 15 30 1019.9 0 12.7 20.9 27.4 71.2 57.7 195.8
08/05 07:20 15.4 40 5.26 1.9 15 20 1019.7 0 12.4 20.7 26.9 70.0 56.2 190.6
08/05 07:10 15.4 40 5.26 1.9 19 28 1019.4 0 12.4 20.7 26.9 70.0 56.2 190.5
08/05 07:00 15.5 40 5.29 2 19 30 1019.2 0 12.5 20.7 27.0 70.2 56.4 191.5
08/05 06:50 15.6 40 5.32 2.1 20 26 1019.3 0 12.6 20.7 27.1 70.4 56.7 192.5
08/05 06:40 15.7 42 5.62 2.8 11 17 1019.1 0 13.2 21.1 28.1 73.1 60.1 204.3
08/05 06:30 15.7 43 5.75 3.2 17 28 1019 0 13.5 21.3 28.5 74.3 61.6 209.5
08/05 06:20 15.9 44 5.96 3.7 24 33 1018.8 0 13.9 21.5 29.2 76.0 63.8 217.5
08/05 06:10 16 46 6.27 4.4 19 24 1018.8 0 14.5 21.9 30.2 78.9 67.4 230.0
08/05 06:00 16.1 48 6.58 5.1 15 30 1018.7 0 15.2 22.4 31.3 81.7 71.0 242.6
08/05 05:50 16.2 47 6.48 4.9 17 28 1018.6 0 15.0 22.2 30.9 80.7 69.7 238.1
08/05 05:40 16.3 48 6.66 5.3 26 35 1018.4 0 15.4 22.4 31.5 82.3 71.7 245.3
08/05 05:30 16.4 48 6.7 5.4 17 26 1018.2 0 15.4 22.5 31.6 82.6 72.1 246.6
08/05 05:20 16.7 47 6.68 5.3 15 20 1018.2 0 15.4 22.4 31.4 82.1 71.6 244.9
08/05 05:10 16.8 46 6.58 5.1 17 24 1018.2 0 15.2 22.2 31.0 81.0 70.3 240.4
08/05 05:00 17.1 46 6.7 5.4 17 37 1017.9 0 15.4 22.3 31.3 81.8 71.5 244.4
08/05 04:50 17.2 45 6.59 5.2 22 28 1017.9 0 15.2 22.1 30.9 80.7 70.1 239.6
08/05 04:40 17.3 45 6.63 5.3 22 30 1017.9 0 15.3 22.1 31.0 81.0 70.5 240.9
08/05 04:30 17.3 44 6.48 4.9 19 32 1017.8 0 14.9 21.9 30.5 79.5 68.7 234.7
08/05 04:20 17.6 43 6.45 4.9 22 28 1017.7 0 14.9 21.8 30.3 78.9 68.1 232.6
08/05 04:10 17.7 43 6.49 5 24 30 1017.6 0 14.9 21.8 30.4 79.2 68.5 234.0
08/05 04:00 17.8 43 6.53 5.1 17 32 1017.6 0 15.0 21.9 30.5 79.5 68.8 235.3
08/05 03:50 17.8 43 6.53 5.1 15 20 1017.6 0 15.0 21.9 30.5 79.5 68.8 235.3
08/05 03:40 18 42 6.45 4.9 20 28 1017.4 0 14.9 21.7 30.1 78.5 67.7 231.4
08/05 03:30 18.1 41 6.33 4.7 17 26 1017.4 0 14.6 21.5 29.6 77.3 66.3 226.3
08/05 03:20 18.3 41 6.41 4.8 19 26 1017.4 0 14.8 21.6 29.8 77.9 67.0 229.0
08/05 03:10 18.3 42 6.57 5.2 11 19 1017.3 0 15.1 21.8 30.4 79.3 68.9 235.4
08/05 03:00 18.5 40 6.33 4.7 19 35 1017.1 0 14.6 21.4 29.5 76.9 65.9 225.1
08/05 02:50 18.7 40 6.4 4.8 11 17 1017 0 14.7 21.4 29.7 77.4 66.5 227.4
08/05 02:40 18.9 39 6.32 4.7 22 33 1016.9 0 14.5 21.3 29.3 76.4 65.5 223.6
08/05 02:30 19 39 6.35 4.7 20 41 1016.9 0 14.6 21.3 29.4 76.6 65.7 224.5
08/05 02:20 19.2 39 6.43 4.9 17 28 1016.7 0 14.8 21.4 29.6 77.1 66.5 227.1
08/05 02:10 19.4 39 6.51 5.1 32 39 1016.8 0 14.9 21.4 29.8 77.7 67.2 229.8
08/05 02:00 19.6 40 6.75 5.6 20 35 1016.8 0 15.4 21.7 30.5 79.7 69.8 238.8
08/05 01:50 19.8 39 6.66 5.5 26 37 1016.8 0 15.2 21.5 30.1 78.7 68.6 234.6
08/05 01:40 19.9 40 6.87 5.9 19 22 1016.7 0 15.7 21.8 30.8 80.5 70.9 242.7
08/05 01:30 20 41 7.08 6.4 20 33 1016.8 0 16.1 22.1 31.5 82.4 73.2 250.9
08/05 01:20 20.2 41 7.17 6.5 20 30 1016.7 0 16.3 22.2 31.8 83.0 74.0 253.9
08/05 01:10 20.4 41 7.25 6.7 19 30 1016.7 0 16.4 22.2 32.0 83.6 74.8 256.5
08/05 01:00 20.7 40 7.2 6.6 19 33 1016.7 0 16.3 22.1 31.7 82.8 73.9 253.5
08/05 00:50 20.7 40 7.2 6.6 24 33 1016.8 0 16.3 22.1 31.7 82.8 73.9 253.6
08/05 00:40 20.7 41 7.38 7 19 26 1016.9 0 16.7 22.3 32.3 84.5 76.0 260.9
08/05 00:30 20.7 42 7.56 7.3 19 26 1016.9 0 17.1 22.6 32.9 86.2 78.1 268.2
08/05 00:20 20.8 43 7.79 7.8 17 28 1017 0 17.6 22.9 33.7 88.2 80.7 277.2
08/05 00:10 20.9 44 8.01 8.2 17 20 1017 0 18.0 23.2 34.5 90.2 83.2 286.0
08/05 00:00 20.9 45 8.19 8.5 13 24 1017.1 0 18.4 23.5 35.1 92.0 85.3 293.4
07/05 23:50 21 45 8.24 8.6 17 20 1017.2 0 18.5 23.5 35.2 92.3 85.8 295.2
07/05 23:40 21 47 8.61 9.3 15 20 1017.2 0 19.3 24.1 36.6 95.9 90.2 310.6
07/05 23:30 20.8 49 8.87 9.7 13 17 1017.3 0 19.8 24.5 37.6 98.7 93.6 322.5
07/05 23:20 20.9 49 8.92 9.8 11 15 1017.4 0 19.9 24.6 37.8 99.1 94.1 324.2
07/05 23:10 21.2 49 9.08 10.1 11 15 1017.4 0 20.2 24.7 38.2 100.3 95.7 329.8
07/05 23:00 21.4 49 9.19 10.3 11 19 1017.4 0 20.5 24.8 38.5 101.1 96.8 333.7
07/05 22:50 21.5 50 9.43 10.6 9 9 1017.4 0 21.0 25.2 39.4 103.4 99.6 343.5
07/05 22:40 21.5 51 9.62 10.9 11 13 1017.4 0 21.4 25.4 40.1 105.3 101.9 351.7
07/05 22:30 21.7 52 9.92 11.4 13 26 1017.4 0 22.0 25.8 41.1 108.0 105.4 363.9
07/05 22:20 21.8 51 9.78 11.2 15 17 1017.4 0 21.7 25.6 40.5 106.5 103.5 357.3
07/05 22:10 21.7 55 10.49 12.3 13 17 1017.5 0 23.2 26.7 43.3 113.9 112.5 389.0
07/05 22:00 21.8 56 10.74 12.6 11 17 1017.5 0 23.7 27.1 44.2 116.3 115.6 399.6
07/05 21:50 22 53 10.29 12 9 11 1017.5 0 22.7 26.3 42.4 111.4 109.6 378.7
07/05 21:40 22.4 51 10.13 11.8 13 17 1017.4 0 22.4 26.0 41.6 109.2 107.0 369.8
07/05 21:30 22.4 55 10.92 12.9 17 24 1017.3 0 24.0 27.2 44.6 117.3 117.0 404.5
07/05 21:20 22.3 61 12.04 14.4 15 20 1017.4 0 26.4 29.0 49.1 129.3 131.7 455.9
07/05 21:10 22.2 66 12.96 15.5 13 15 1017.4 0 28.4 30.6 52.9 139.5 144.2 499.7
07/05 21:00 22.2 71 13.94 16.7 13 17 1017.4 0 30.4 32.2 57.0 150.5 157.8 547.0
07/05 20:50 22.2 75 14.72 17.6 15 17 1017.5 0 32.1 33.6 60.4 159.5 168.8 585.6
07/05 20:40 21.9 87 16.79 19.6 11 13 1017.4 0 36.5 37.5 70.1 185.1 200.2 694.9
07/05 20:30 21.7 92 17.55 20.3 7 9 1017.2 0 38.2 39.0 73.8 195.2 212.5 737.6
07/05 20:20 21.8 92 17.65 20.4 7 9 1017.2 0 38.4 39.2 74.2 196.2 213.8 742.1
07/05 20:10 21.7 93 17.74 20.5 7 7 1017.1 0 38.6 39.4 74.7 197.6 215.5 747.9
07/05 20:00 21.8 92 17.65 20.4 6 7 1017 0 38.4 39.1 74.2 196.2 213.8 742.0

Last Refresh: 08-May-2026 12:07:29

Bureau of Meteorology